チャーチル の空港の天気 - METARとTAF

チャーチル空港 ( CYYQ / YYQ ) - カナダ マニトバ州Churchill
飛行場実況気象(Metar)
観測時間04/26 11:00 CDT (04/26 16:00 UTC)
風向・風速北北西 2m/s
視程10km以上
天気現象
全天の4割程度の雲 雲底高度 3050m
全天を覆う雲 雲底高度 7620m
気温-6℃
湿度58%
気圧1020.6hPa
METARCYYQ 261600Z 33003KT 15SM SCT100 OVC250 M06/M13 A3013 RMK AS4CI4 SLP206
過去の天気等 Google飛行場航空写真 Wunderground天気予報

過去48時間のMETAR

飛行場予報(TAF)
発表時間: 4/26 06:38 CDT (4/26 11:38 UTC)
予報対象時間: 26日7時 CDT ~ 27日7時 CDT
風向・風速不定 2m/s
視程10km以上
全天の4割程度の雲 雲底高度 6400m
26日11時 CDT から
風向・風速南南西 3m/s
視程10km以上
全天の8割程度の雲 雲底高度 2440m
26日16時 CDT から
風向・風速東北東 6m/s
視程10km以上
全天の8割程度の雲 雲底高度 910m
26日19時 CDT から
風向・風速東 6m/s
視程10km以上
全天を覆う雲 雲底高度 760m
26日19時 CDT ~ 27日7時 CDT に一時的に
視程8050m
天気現象弱い雪
全天を覆う雲 雲底高度 370m
TAF CYYQ 261138Z 2612/2712 VRB03KT P6SM SCT210
FM261600 20006KT P6SM BKN080
FM262100 07012KT P6SM BKN030
FM270000 08012KT P6SM OVC025
TEMPO 2700/2712 5SM -SN OVC012 RMK NXT FCST BY 261800Z